Time,TemperatureF,DewpointF,PressureIn,WindDirection,WindDirectionDegrees,WindSpeedMPH,WindSpeedGustMPH,Humidity,HourlyPrecipIn,Conditions,Clouds,dailyrainin,SoftwareType,DateUTC
2013-03-15 00:00:00,27.4,27.4,30.02,SW,225,2.4,4.0,100,0.00,RA,,0.00,WeatherDisplay:10.37,2013-03-15 05:00:00,
2013-03-15 00:05:00,27.5,27.5,30.02,SSW,213,2.9,4.6,100,0.00,RA,,0.00,WeatherDisplay:10.37,2013-03-15 05:05:00,
2013-03-15 00:10:00,27.5,27.5,30.01,WSW,243,0.7,2.3,100,0.00,CLR,,0.00,WeatherDisplay:10.37,2013-03-15 05:10:00,
2013-03-15 00:15:00,27.5,27.5,30.01,WSW,249,2.6,4.8,100,0.00,CLR,,0.00,WeatherDisplay:10.37,2013-03-15 05:15:00,
2013-03-15 00:20:00,27.4,27.4,30.01,SW,226,2.4,3.5,100,0.00,CLR,,0.00,WeatherDisplay:10.37,2013-03-15 05:20:00,
2013-03-15 00:25:00,27.4,27.4,30.01,WSW,240,0.1,2.3,100,0.00,CLR,,0.00,WeatherDisplay:10.37,2013-03-15 05:25:00,
2013-03-15 00:30:00,27.1,27.1,30.01,NNW,329,0.2,1.4,100,0.00,CLR,,0.00,WeatherDisplay:10.37,2013-03-15 05:30:00,
2013-03-15 00:35:00,26.9,26.9,30.00,West,259,0.0,0.0,100,0.00,CLR,,0.00,WeatherDisplay:10.37,2013-03-15 05:35:00,
2013-03-15 00:40:00,26.7,26.7,30.00,WSW,249,1.1,5.8,100,0.00,CLR,,0.00,WeatherDisplay:10.37,2013-03-15 05:40:00,
2013-03-15 00:45:00,26.8,26.8,30.00,West,259,2.9,6.5,100,0.00,CLR,,0.00,WeatherDisplay:10.37,2013-03-15 05:45:00,
2013-03-15 00:50:00,26.8,26.8,30.00,SW,216,2.7,4.6,100,0.00,CLR,,0.00,WeatherDisplay:10.37,2013-03-15 05:50:00,
2013-03-15 00:55:00,26.9,26.9,30.00,West,281,3.0,5.8,100,0.00,CLR,,0.00,WeatherDisplay:10.37,2013-03-15 05:55:00,
2013-03-15 01:00:00,26.8,26.8,29.99,NW,325,0.9,2.3,100,0.00,CLR,,0.00,WeatherDisplay:10.37,2013-03-15 06:00:00,
2013-03-15 01:05:00,26.7,26.7,29.99,West,274,0.0,0.0,100,0.00,CLR,,0.00,WeatherDisplay:10.37,2013-03-15 06:05:00,
2013-03-15 01:10:00,26.8,26.8,29.99,West,261,1.6,3.5,100,0.00,CLR,,0.00,WeatherDisplay:10.37,2013-03-15 06:10:00,
2013-03-15 01:15:00,26.6,26.6,29.99,NW,325,1.7,2.3,100,0.00,CLR,,0.00,WeatherDisplay:10.37,2013-03-15 06:15:00,
2013-03-15 01:20:00,26.5,26.5,29.99,West,273,1.1,2.3,100,0.00,CLR,,0.00,WeatherDisplay:10.37,2013-03-15 06:20:00,
2013-03-15 01:25:00,26.5,26.5,29.99,SSW,202,0.0,0.0,100,0.00,CLR,,0.00,WeatherDisplay:10.37,2013-03-15 06:25:00,
2013-03-15 01:30:00,26.5,26.5,29.99,WNW,285,0.4,3.4,100,0.00,CLR,,0.00,WeatherDisplay:10.37,2013-03-15 06:30:00,
2013-03-15 01:35:00,26.6,26.6,29.98,SW,226,2.7,3.5,100,0.00,CLR,,0.00,WeatherDisplay:10.37,2013-03-15 06:35:00,
2013-03-15 01:40:00,26.6,26.6,29.98,SSW,198,3.2,4.8,100,0.00,CLR,,0.00,WeatherDisplay:10.37,2013-03-15 06:40:00,
2013-03-15 01:45:00,26.6,26.6,29.97,WSW,242,2.5,4.6,100,0.00,CLR,,0.00,WeatherDisplay:10.37,2013-03-15 06:45:00,
2013-03-15 01:50:00,26.5,26.5,29.97,WSW,249,0.3,2.3,100,0.00,CLR,,0.00,WeatherDisplay:10.37,2013-03-15 06:50:00,
2013-03-15 01:55:00,26.7,26.7,29.97,SW,236,1.5,2.7,100,0.00,CLR,,0.00,WeatherDisplay:10.37,2013-03-15 06:55:00,
2013-03-15 02:00:00,26.9,26.9,29.97,SSW,209,1.0,2.3,100,0.00,CLR,,0.00,WeatherDisplay:10.37,2013-03-15 07:00:00,
2013-03-15 02:05:00,26.9,26.9,29.97,SSW,205,1.7,3.5,100,0.00,CLR,,0.00,WeatherDisplay:10.37,2013-03-15 07:05:00,
2013-03-15 02:10:00,26.9,26.9,29.97,WSW,242,2.4,3.9,100,0.00,CLR,,0.00,WeatherDisplay:10.37,2013-03-15 07:10:00,
2013-03-15 02:15:00,26.8,26.8,29.97,South,187,2.0,2.3,100,0.00,CLR,,0.00,WeatherDisplay:10.37,2013-03-15 07:15:00,
2013-03-15 02:20:00,26.7,26.7,29.96,South,188,0.0,0.0,100,0.00,CLR,,0.00,WeatherDisplay:10.37,2013-03-15 07:20:00,
2013-03-15 02:25:00,26.8,26.8,29.96,WSW,253,1.5,3.5,100,0.00,CLR,,0.00,WeatherDisplay:10.37,2013-03-15 07:25:00,
2013-03-15 02:30:00,26.9,26.9,29.96,NW,321,1.6,2.4,100,0.00,CLR,,0.00,WeatherDisplay:10.37,2013-03-15 07:30:00,
2013-03-15 02:35:00,27.0,27.0,29.96,WSW,246,0.5,2.3,100,0.00,CLR,,0.00,WeatherDisplay:10.37,2013-03-15 07:35:00,
2013-03-15 02:40:00,27.1,27.1,29.96,SW,233,1.4,2.3,100,0.00,CLR,,0.00,WeatherDisplay:10.37,2013-03-15 07:40:00,
2013-03-15 02:45:00,27.1,27.1,29.96,ESE,123,2.1,4.6,100,0.00,CLR,,0.00,WeatherDisplay:10.37,2013-03-15 07:45:00,
2013-03-15 02:50:00,27.1,27.1,29.96,SW,226,1.6,2.3,100,0.00,CLR,,0.00,WeatherDisplay:10.37,2013-03-15 07:50:00,
2013-03-15 02:55:00,27.0,27.0,29.96,SSE,165,0.0,0.0,100,0.00,CLR,,0.00,WeatherDisplay:10.37,2013-03-15 07:55:00,
2013-03-15 03:00:00,26.9,26.9,29.95,SW,220,3.1,4.6,100,0.00,CLR,,0.00,WeatherDisplay:10.37,2013-03-15 08:00:00,
2013-03-15 03:05:00,27.1,27.1,29.95,WSW,237,3.1,5.8,100,0.00,CLR,,0.00,WeatherDisplay:10.37,2013-03-15 08:05:00,
2013-03-15 03:10:00,27.6,27.6,29.95,WSW,256,3.2,4.6,100,0.00,CLR,,0.00,WeatherDisplay:10.37,2013-03-15 08:10:00,
2013-03-15 03:15:00,28.0,28.0,29.95,SSW,204,4.0,5.8,100,0.00,CLR,,0.00,WeatherDisplay:10.37,2013-03-15 08:15:00,
2013-03-15 03:20:00,28.1,28.1,29.94,WSW,253,3.2,5.8,100,0.00,CLR,,0.00,WeatherDisplay:10.37,2013-03-15 08:20:00,
2013-03-15 03:25:00,28.1,28.1,29.94,SW,233,2.7,4.6,100,0.00,CLR,,0.00,WeatherDisplay:10.37,2013-03-15 08:25:00,
2013-03-15 03:30:00,28.0,28.0,29.94,WSW,246,2.1,4.6,100,0.00,CLR,,0.00,WeatherDisplay:10.37,2013-03-15 08:30:00,
2013-03-15 03:35:00,27.9,27.9,29.94,West,277,2.1,2.3,100,0.00,CLR,,0.00,WeatherDisplay:10.37,2013-03-15 08:35:00,
2013-03-15 03:40:00,27.9,27.9,29.94,WSW,242,2.7,4.6,100,0.00,CLR,,0.00,WeatherDisplay:10.37,2013-03-15 08:40:00,
2013-03-15 03:45:00,27.8,27.8,29.93,West,278,0.6,2.3,100,0.00,CLR,,0.00,WeatherDisplay:10.37,2013-03-15 08:45:00,
2013-03-15 03:50:00,27.9,27.9,29.94,WNW,295,0.0,0.0,100,0.00,CLR,,0.00,WeatherDisplay:10.37,2013-03-15 08:50:00,
2013-03-15 03:55:00,27.9,27.9,29.93,NW,319,0.2,1.1,100,0.00,CLR,,0.00,WeatherDisplay:10.37,2013-03-15 08:55:00,
2013-03-15 04:00:00,27.8,27.8,29.93,NW,319,0.0,0.0,100,0.00,CLR,,0.00,WeatherDisplay:10.37,2013-03-15 09:00:00,
2013-03-15 04:05:00,27.6,27.6,29.92,NW,319,0.0,0.0,100,0.00,CLR,,0.00,WeatherDisplay:10.37,2013-03-15 09:05:00,
2013-03-15 04:10:00,27.6,27.6,29.93,NW,319,0.0,0.0,100,0.00,CLR,,0.00,WeatherDisplay:10.37,2013-03-15 09:10:00,
2013-03-15 04:15:00,27.5,27.5,29.93,NW,319,0.0,0.0,100,0.00,CLR,,0.00,WeatherDisplay:10.37,2013-03-15 09:15:00,
2013-03-15 04:20:00,27.6,27.6,29.92,NW,319,0.0,0.0,100,0.00,CLR,,0.00,WeatherDisplay:10.37,2013-03-15 09:20:00,
2013-03-15 04:25:00,27.6,27.6,29.92,NW,319,0.0,0.0,100,0.00,CLR,,0.00,WeatherDisplay:10.37,2013-03-15 09:25:00,
2013-03-15 04:30:00,27.4,27.4,29.92,NW,319,0.0,0.0,100,0.00,CLR,,0.00,WeatherDisplay:10.37,2013-03-15 09:30:00,
2013-03-15 04:35:00,27.4,27.4,29.92,NW,319,0.0,0.0,100,0.00,CLR,,0.00,WeatherDisplay:10.37,2013-03-15 09:35:00,
2013-03-15 04:40:00,27.3,27.3,29.92,NW,319,0.0,0.0,100,0.00,CLR,,0.00,WeatherDisplay:10.37,2013-03-15 09:40:00,
2013-03-15 04:45:00,27.2,27.2,29.92,NW,319,0.0,0.0,100,0.00,CLR,,0.00,WeatherDisplay:10.37,2013-03-15 09:45:00,
2013-03-15 04:50:00,27.0,27.0,29.92,NW,319,0.0,0.0,100,0.00,CLR,,0.00,WeatherDisplay:10.37,2013-03-15 09:50:00,
2013-03-15 04:55:00,26.8,26.8,29.91,NW,319,0.0,0.0,100,0.00,CLR,,0.00,WeatherDisplay:10.37,2013-03-15 09:55:00,
2013-03-15 05:00:00,26.7,26.7,29.91,NW,319,0.0,0.0,100,0.00,CLR,,0.00,WeatherDisplay:10.37,2013-03-15 10:00:00,
2013-03-15 05:05:00,26.6,26.6,29.91,NW,319,0.0,0.0,100,0.00,CLR,,0.00,WeatherDisplay:10.37,2013-03-15 10:05:00,
2013-03-15 05:10:00,26.6,26.6,29.91,NW,319,0.0,0.0,100,0.00,CLR,,0.00,WeatherDisplay:10.37,2013-03-15 10:10:00,
2013-03-15 05:15:00,26.5,26.5,29.91,NW,319,0.0,0.0,100,0.00,CLR,,0.00,WeatherDisplay:10.37,2013-03-15 10:15:00,
2013-03-15 05:20:00,26.4,26.4,29.91,NW,319,0.0,0.0,100,0.00,CLR,,0.00,WeatherDisplay:10.37,2013-03-15 10:20:00,
2013-03-15 05:25:00,26.4,26.4,29.91,NW,319,0.0,0.0,100,0.00,CLR,,0.00,WeatherDisplay:10.37,2013-03-15 10:25:00,
2013-03-15 05:30:00,26.4,26.4,29.90,NW,319,0.0,0.0,100,0.00,CLR,,0.00,WeatherDisplay:10.37,2013-03-15 10:30:00,
2013-03-15 05:35:00,26.3,26.3,29.91,NW,319,0.0,0.0,100,0.00,CLR,,0.00,WeatherDisplay:10.37,2013-03-15 10:35:00,
2013-03-15 05:40:00,26.4,26.4,29.90,NW,319,0.0,0.0,100,0.00,CLR,,0.00,WeatherDisplay:10.37,2013-03-15 10:40:00,
2013-03-15 05:45:00,26.3,26.3,29.91,NW,319,0.0,0.0,100,0.00,CLR,,0.00,WeatherDisplay:10.37,2013-03-15 10:45:00,
2013-03-15 05:50:00,26.4,26.4,29.90,NW,319,0.0,0.0,100,0.00,CLR,,0.00,WeatherDisplay:10.37,2013-03-15 10:50:00,
2013-03-15 05:55:00,26.8,26.8,29.91,NNW,346,0.3,1.1,100,0.00,CLR,,0.00,WeatherDisplay:10.37,2013-03-15 10:55:00,
2013-03-15 06:00:00,27.1,27.1,29.91,NNW,332,1.3,3.5,100,0.00,CLR,,0.00,WeatherDisplay:10.37,2013-03-15 11:00:00,
2013-03-15 06:05:00,27.7,27.7,29.90,North,3,0.0,0.0,100,0.00,CLR,,0.00,WeatherDisplay:10.37,2013-03-15 11:05:00,
2013-03-15 06:10:00,27.9,27.9,29.90,North,3,0.0,0.0,100,0.00,CLR,,0.00,WeatherDisplay:10.37,2013-03-15 11:10:00,
2013-03-15 06:15:00,28.1,28.1,29.90,North,3,0.0,0.0,100,0.00,CLR,,0.00,WeatherDisplay:10.37,2013-03-15 11:15:00,
2013-03-15 06:20:00,28.3,28.3,29.91,NNW,331,1.6,2.3,100,0.00,CLR,,0.00,WeatherDisplay:10.37,2013-03-15 11:20:00,
2013-03-15 06:25:00,28.7,28.7,29.91,NW,318,0.9,2.3,100,0.00,CLR,,0.00,WeatherDisplay:10.37,2013-03-15 11:25:00,
2013-03-15 06:30:00,28.7,28.7,29.91,NW,304,2.6,3.5,100,0.00,CLR,,0.00,WeatherDisplay:10.37,2013-03-15 11:30:00,
2013-03-15 06:35:00,28.7,28.7,29.92,West,281,4.4,6.9,100,0.00,CLR,,0.00,WeatherDisplay:10.37,2013-03-15 11:35:00,
2013-03-15 06:40:00,28.7,28.7,29.92,NW,307,3.1,5.8,100,0.00,CLR,,0.00,WeatherDisplay:10.37,2013-03-15 11:40:00,
2013-03-15 06:45:00,28.9,28.9,29.92,WNW,302,3.5,4.6,100,0.00,CLR,,0.00,WeatherDisplay:10.37,2013-03-15 11:45:00,
2013-03-15 06:50:00,28.7,28.7,29.92,WNW,294,3.5,5.8,100,0.00,CLR,,0.00,WeatherDisplay:10.37,2013-03-15 11:50:00,
2013-03-15 06:55:00,28.6,28.6,29.92,West,263,4.9,8.1,100,0.00,CLR,,0.00,WeatherDisplay:10.37,2013-03-15 11:55:00,
2013-03-15 07:00:00,28.7,28.7,29.92,WSW,244,3.1,6.9,100,0.00,CLR,,0.00,WeatherDisplay:10.37,2013-03-15 12:00:00,
2013-03-15 07:05:00,28.6,28.6,29.92,WNW,291,2.0,4.7,100,0.00,CLR,,0.00,WeatherDisplay:10.37,2013-03-15 12:05:00,
2013-03-15 07:10:00,28.7,28.7,29.91,NW,314,2.9,4.6,100,0.00,CLR,,0.00,WeatherDisplay:10.37,2013-03-15 12:10:00,
2013-03-15 07:15:00,28.6,28.6,29.91,NW,309,2.7,3.5,100,0.00,CLR,,0.00,WeatherDisplay:10.37,2013-03-15 12:15:00,
2013-03-15 07:20:00,28.6,28.6,29.91,NW,309,2.4,3.5,100,0.00,CLR,,0.00,WeatherDisplay:10.37,2013-03-15 12:20:00,
2013-03-15 07:25:00,28.5,28.5,29.91,West,261,4.0,5.7,100,0.00,CLR,,0.00,WeatherDisplay:10.37,2013-03-15 12:25:00,
2013-03-15 07:30:00,28.5,28.5,29.92,NW,304,2.6,4.6,100,0.00,CLR,,0.00,WeatherDisplay:10.37,2013-03-15 12:30:00,
2013-03-15 07:35:00,28.6,28.6,29.92,West,273,1.3,2.3,100,0.00,CLR,,0.00,WeatherDisplay:10.37,2013-03-15 12:35:00,
2013-03-15 07:40:00,28.7,28.7,29.92,NW,307,1.7,2.4,100,0.00,CLR,,0.00,WeatherDisplay:10.37,2013-03-15 12:40:00,
2013-03-15 07:45:00,28.7,28.7,29.92,WNW,295,1.8,2.3,100,0.00,CLR,,0.00,WeatherDisplay:10.37,2013-03-15 12:45:00,
2013-03-15 07:50:00,28.6,28.6,29.92,WNW,302,3.7,4.6,100,0.00,CLR,,0.00,WeatherDisplay:10.37,2013-03-15 12:50:00,
2013-03-15 07:55:00,28.8,28.8,29.92,WNW,283,1.3,3.5,100,0.00,CLR,,0.00,WeatherDisplay:10.37,2013-03-15 12:55:00,
2013-03-15 08:00:00,28.7,28.7,29.91,WNW,292,2.9,5.8,100,0.00,CLR,,0.00,WeatherDisplay:10.37,2013-03-15 13:00:00,
2013-03-15 08:05:00,28.7,28.7,29.92,NW,307,4.8,6.9,100,0.00,BKN,,0.00,WeatherDisplay:10.37,2013-03-15 13:05:00,
2013-03-15 08:10:00,28.7,28.7,29.91,WNW,302,4.8,5.8,100,0.00,BKN,,0.00,WeatherDisplay:10.37,2013-03-15 13:10:00,
2013-03-15 08:15:00,28.9,28.9,29.91,NW,314,1.8,4.6,100,0.00,BKN,,0.00,WeatherDisplay:10.37,2013-03-15 13:15:00,
2013-03-15 08:20:00,29.1,29.1,29.90,WNW,290,2.2,5.8,100,0.00,BKN,,0.00,WeatherDisplay:10.37,2013-03-15 13:20:00,
2013-03-15 08:25:00,29.2,29.2,29.90,NNW,329,2.2,3.5,100,0.00,BKN,,0.00,WeatherDisplay:10.37,2013-03-15 13:25:00,
2013-03-15 08:30:00,29.4,29.4,29.90,West,274,3.9,4.6,100,0.00,BKN,,0.00,WeatherDisplay:10.37,2013-03-15 13:30:00,
2013-03-15 08:35:00,29.3,29.3,29.90,West,277,4.4,8.1,100,0.00,BKN,,0.00,WeatherDisplay:10.37,2013-03-15 13:35:00,
2013-03-15 08:40:00,29.5,29.5,29.90,NNW,338,3.6,4.6,100,0.00,BKN,,0.00,WeatherDisplay:10.37,2013-03-15 13:40:00,
2013-03-15 08:45:00,29.7,29.7,29.90,NW,322,3.5,5.8,100,0.00,BKN,,0.00,WeatherDisplay:10.37,2013-03-15 13:45:00,
2013-03-15 08:50:00,30.0,30.0,29.90,WNW,295,1.3,3.5,100,0.00,BKN,,0.00,WeatherDisplay:10.37,2013-03-15 13:50:00,
2013-03-15 08:55:00,30.1,30.1,29.90,South,189,2.2,4.6,100,0.00,BKN,,0.00,WeatherDisplay:10.37,2013-03-15 13:55:00,
2013-03-15 09:00:00,30.1,30.1,29.90,NNW,338,3.6,4.6,100,0.00,BKN,,0.00,WeatherDisplay:10.37,2013-03-15 14:00:00,
2013-03-15 09:05:00,30.5,30.5,29.89,NNW,328,2.7,3.5,100,0.00,OVC,,0.00,WeatherDisplay:10.37,2013-03-15 14:05:00,
2013-03-15 09:10:00,30.8,30.8,29.89,WNW,300,1.9,2.5,100,0.00,OVC,,0.00,WeatherDisplay:10.37,2013-03-15 14:10:00,
2013-03-15 09:15:00,31.1,31.1,29.89,NNE,33,0.1,1.1,100,0.00,OVC,,0.00,WeatherDisplay:10.37,2013-03-15 14:15:00,
2013-03-15 09:20:00,31.3,31.3,29.89,NNE,33,0.0,0.0,100,0.00,OVC,,0.00,WeatherDisplay:10.37,2013-03-15 14:20:00,
2013-03-15 09:25:00,31.3,31.3,29.89,WNW,301,3.8,5.8,100,0.00,OVC,,0.00,WeatherDisplay:10.37,2013-03-15 14:25:00,
2013-03-15 09:30:00,31.5,31.5,29.89,NNW,339,0.9,2.3,100,0.00,OVC,,0.00,WeatherDisplay:10.37,2013-03-15 14:30:00,
2013-03-15 09:35:00,31.6,31.6,29.89,SW,236,1.8,3.5,100,0.00,OVC,,0.00,WeatherDisplay:10.37,2013-03-15 14:35:00,
2013-03-15 09:40:00,31.8,31.8,29.88,NE,54,2.3,3.5,100,0.00,OVC,,0.00,WeatherDisplay:10.37,2013-03-15 14:40:00,
2013-03-15 09:45:00,31.8,31.8,29.88,NNE,21,2.3,4.4,100,0.00,OVC,,0.00,WeatherDisplay:10.37,2013-03-15 14:45:00,
2013-03-15 09:50:00,31.8,31.8,29.88,NE,38,1.0,3.5,100,0.00,OVC,,0.00,WeatherDisplay:10.37,2013-03-15 14:50:00,
2013-03-15 09:55:00,31.7,31.7,29.88,NE,55,1.2,2.4,100,0.00,OVC,,0.00,WeatherDisplay:10.37,2013-03-15 14:55:00,
2013-03-15 10:00:00,32.3,32.3,29.88,North,357,0.0,0.0,100,0.00,OVC,,0.00,WeatherDisplay:10.37,2013-03-15 15:00:00,
2013-03-15 10:05:00,32.5,32.5,29.88,NE,44,2.0,4.0,100,0.00,OVC,,0.00,WeatherDisplay:10.37,2013-03-15 15:05:00,
2013-03-15 10:10:00,32.9,32.9,29.89,NE,40,0.4,2.7,100,0.00,OVC,,0.00,WeatherDisplay:10.37,2013-03-15 15:10:00,
2013-03-15 10:15:00,33.1,33.1,29.89,NW,315,1.5,2.3,100,0.00,OVC,,0.00,WeatherDisplay:10.37,2013-03-15 15:15:00,
2013-03-15 10:20:00,33.4,33.4,29.89,North,4,2.9,4.6,100,0.00,OVC,,0.00,WeatherDisplay:10.37,2013-03-15 15:20:00,
2013-03-15 10:25:00,33.4,33.4,29.89,NNE,17,3.4,4.6,100,0.00,OVC,,0.00,WeatherDisplay:10.37,2013-03-15 15:25:00,
2013-03-15 10:30:00,33.2,32.7,29.89,ENE,74,4.0,6.9,98,0.00,OVC,,0.00,WeatherDisplay:10.37,2013-03-15 15:30:00,
2013-03-15 10:35:00,33.1,33.1,29.88,NE,40,2.1,5.8,100,0.00,OVC,,0.00,WeatherDisplay:10.37,2013-03-15 15:35:00,
2013-03-15 10:40:00,33.2,33.2,29.88,ENE,75,2.8,4.6,100,0.00,OVC,,0.00,WeatherDisplay:10.37,2013-03-15 15:40:00,
2013-03-15 10:45:00,33.3,33.3,29.89,NNE,19,0.1,1.1,100,0.00,OVC,,0.00,WeatherDisplay:10.37,2013-03-15 15:45:00,
2013-03-15 10:50:00,33.3,32.8,29.89,ENE,57,4.2,5.8,98,0.00,OVC,,0.00,WeatherDisplay:10.37,2013-03-15 15:50:00,
2013-03-15 10:55:00,33.3,33.0,29.89,NE,55,2.4,3.5,99,0.00,OVC,,0.00,WeatherDisplay:10.37,2013-03-15 15:55:00,
2013-03-15 11:00:00,33.2,33.2,29.89,NE,37,1.6,3.5,100,0.00,OVC,,0.00,WeatherDisplay:10.37,2013-03-15 16:00:00,
2013-03-15 11:05:00,33.5,33.5,29.88,NE,37,0.0,0.0,100,0.00,-RA,,0.00,WeatherDisplay:10.37,2013-03-15 16:05:00,
2013-03-15 11:10:00,33.4,33.4,29.89,NE,37,0.0,0.0,100,0.00,-RA,,0.00,WeatherDisplay:10.37,2013-03-15 16:10:00,
2013-03-15 11:15:00,33.4,33.4,29.88,NE,44,1.6,3.5,100,0.00,-RA,,0.00,WeatherDisplay:10.37,2013-03-15 16:15:00,
2013-03-15 11:20:00,33.7,33.7,29.88,ESE,108,0.0,0.0,100,0.00,-RA,,0.00,WeatherDisplay:10.37,2013-03-15 16:20:00,
2013-03-15 11:25:00,33.9,33.9,29.88,ESE,108,0.0,0.0,100,0.00,-RA,,0.00,WeatherDisplay:10.37,2013-03-15 16:25:00,
2013-03-15 11:30:00,34.0,34.0,29.88,East,82,0.0,0.0,100,0.00,-RA,,0.00,WeatherDisplay:10.37,2013-03-15 16:30:00,
2013-03-15 11:35:00,34.0,34.0,29.88,NE,47,1.6,2.3,100,0.00,-RA,,0.00,WeatherDisplay:10.37,2013-03-15 16:35:00,
2013-03-15 11:40:00,33.5,33.5,29.88,East,81,4.0,5.8,100,0.00,-RA,,0.00,WeatherDisplay:10.37,2013-03-15 16:40:00,
2013-03-15 11:45:00,33.2,33.2,29.87,NE,41,3.3,5.8,100,0.00,-RA,,0.00,WeatherDisplay:10.37,2013-03-15 16:45:00,
2013-03-15 11:50:00,33.2,33.2,29.88,NE,45,4.0,4.6,100,0.00,-RA,,0.00,WeatherDisplay:10.37,2013-03-15 16:50:00,
2013-03-15 11:55:00,33.3,33.3,29.88,East,95,2.2,2.3,100,0.00,-RA,,0.00,WeatherDisplay:10.37,2013-03-15 16:55:00,
2013-03-15 12:00:00,33.6,33.6,29.88,NNE,30,0.0,2.3,100,0.00,-RA,,0.00,WeatherDisplay:10.37,2013-03-15 17:00:00,
2013-03-15 12:05:00,33.6,33.6,29.88,NE,54,2.7,4.3,100,0.00,-RA,,0.00,WeatherDisplay:10.37,2013-03-15 17:05:00,
2013-03-15 12:10:00,33.4,33.4,29.88,NE,37,3.2,4.2,100,0.00,-RA,,0.00,WeatherDisplay:10.37,2013-03-15 17:10:00,
2013-03-15 12:15:00,33.4,33.4,29.88,East,82,1.9,4.6,100,0.01,-RA,,0.01,WeatherDisplay:10.37,2013-03-15 17:15:00,
2013-03-15 12:20:00,33.2,33.2,29.88,East,99,2.8,3.5,100,0.02,-RA,,0.02,WeatherDisplay:10.37,2013-03-15 17:20:00,
2013-03-15 12:25:00,33.2,33.2,29.88,East,84,0.0,0.0,100,0.02,-RA,,0.02,WeatherDisplay:10.37,2013-03-15 17:25:00,
2013-03-15 12:30:00,33.1,33.1,29.88,East,85,1.9,2.3,100,0.03,-RA,,0.03,WeatherDisplay:10.37,2013-03-15 17:30:00,
2013-03-15 12:35:00,33.3,33.3,29.88,East,81,0.2,2.3,100,0.04,-RA,,0.04,WeatherDisplay:10.37,2013-03-15 17:35:00,
2013-03-15 12:40:00,33.5,33.5,29.88,ENE,74,0.0,0.0,100,0.05,-RA,,0.05,WeatherDisplay:10.37,2013-03-15 17:40:00,
2013-03-15 12:45:00,33.5,33.5,29.88,NNE,21,1.8,3.5,100,0.06,-RA,,0.06,WeatherDisplay:10.37,2013-03-15 17:45:00,
2013-03-15 12:50:00,33.4,33.4,29.88,ENE,65,2.2,2.5,100,0.07,-RA,,0.07,WeatherDisplay:10.37,2013-03-15 17:50:00,
2013-03-15 12:55:00,33.2,33.2,29.88,NNE,31,2.2,3.5,100,0.07,-RA,,0.07,WeatherDisplay:10.37,2013-03-15 17:55:00,
2013-03-15 13:00:00,33.0,33.0,29.88,NE,54,3.4,5.8,100,0.08,-RA,,0.08,WeatherDisplay:10.37,2013-03-15 18:00:00,
2013-03-15 13:05:00,33.0,33.0,29.88,ENE,71,4.2,5.8,100,0.09,-RA,,0.09,WeatherDisplay:10.37,2013-03-15 18:05:00,
2013-03-15 13:10:00,33.0,33.0,29.88,East,92,3.5,4.6,100,0.10,-RA,,0.10,WeatherDisplay:10.37,2013-03-15 18:10:00,
2013-03-15 13:15:00,33.2,33.2,29.88,NE,36,3.0,4.6,100,0.09,-RA,,0.10,WeatherDisplay:10.37,2013-03-15 18:15:00,
2013-03-15 13:20:00,33.4,33.4,29.88,East,99,0.3,0.6,100,0.09,-RA,,0.11,WeatherDisplay:10.37,2013-03-15 18:20:00,
2013-03-15 13:25:00,33.7,33.7,29.88,East,96,1.5,3.5,100,0.09,-RA,,0.11,WeatherDisplay:10.37,2013-03-15 18:25:00,
2013-03-15 13:30:00,33.3,33.3,29.88,NNE,33,2.2,2.7,100,0.09,-RA,,0.12,WeatherDisplay:10.37,2013-03-15 18:30:00,
2013-03-15 13:35:00,33.0,33.0,29.88,NE,51,3.4,4.6,100,0.09,-RA,,0.13,WeatherDisplay:10.37,2013-03-15 18:35:00,
2013-03-15 13:40:00,33.1,33.1,29.88,NE,45,2.7,3.5,100,0.08,-RA,,0.13,WeatherDisplay:10.37,2013-03-15 18:40:00,
2013-03-15 13:45:00,33.2,33.2,29.88,NE,47,3.6,4.6,100,0.08,-RA,,0.14,WeatherDisplay:10.37,2013-03-15 18:45:00,
2013-03-15 13:50:00,33.3,33.3,29.88,NNE,20,2.7,4.2,100,0.07,-RA,,0.14,WeatherDisplay:10.37,2013-03-15 18:50:00,
2013-03-15 13:55:00,33.5,33.5,29.88,SE,146,1.8,3.5,100,0.08,-RA,,0.15,WeatherDisplay:10.37,2013-03-15 18:55:00,
2013-03-15 14:00:00,33.4,33.4,29.88,NNE,28,0.5,1.6,100,0.07,-RA,,0.15,WeatherDisplay:10.37,2013-03-15 19:00:00,
2013-03-15 14:05:00,33.5,33.5,29.87,NNE,27,2.2,3.5,100,0.07,-RA,,0.16,WeatherDisplay:10.37,2013-03-15 19:05:00,
2013-03-15 14:10:00,33.3,33.3,29.87,East,92,3.2,4.6,100,0.06,-RA,,0.16,WeatherDisplay:10.37,2013-03-15 19:10:00,
2013-03-15 14:15:00,33.0,33.0,29.87,NNE,20,2.1,3.5,100,0.06,-RA,,0.16,WeatherDisplay:10.37,2013-03-15 19:15:00,
2013-03-15 14:20:00,33.2,33.2,29.86,NE,52,3.0,3.5,100,0.05,-RA,,0.16,WeatherDisplay:10.37,2013-03-15 19:20:00,
2013-03-15 14:25:00,33.2,33.2,29.86,NNE,33,2.6,4.6,100,0.05,-RA,,0.16,WeatherDisplay:10.37,2013-03-15 19:25:00,
2013-03-15 14:30:00,33.0,33.0,29.86,NE,43,2.9,3.5,100,0.05,-RA,,0.17,WeatherDisplay:10.37,2013-03-15 19:30:00,
2013-03-15 14:35:00,33.2,33.2,29.85,ENE,75,2.3,2.7,100,0.04,-RA,,0.17,WeatherDisplay:10.37,2013-03-15 19:35:00,
2013-03-15 14:40:00,32.9,32.9,29.85,NE,50,3.7,5.8,100,0.04,-RA,,0.17,WeatherDisplay:10.37,2013-03-15 19:40:00,
2013-03-15 14:45:00,32.8,32.8,29.85,ESE,109,1.9,2.3,100,0.03,-RA,,0.17,WeatherDisplay:10.37,2013-03-15 19:45:00,
2013-03-15 14:50:00,33.2,33.2,29.84,NNE,33,0.8,2.8,100,0.03,-RA,,0.17,WeatherDisplay:10.37,2013-03-15 19:50:00,
2013-03-15 14:58:00,33.0,33.0,29.84,ENE,71,2.5,4.6,100,0.02,-RA,,0.17,WeatherDisplay:10.37,2013-03-15 19:58:00,
2013-03-15 15:04:00,32.9,32.9,29.84,ENE,76,1.9,3.5,100,0.02,-RA,,0.17,WeatherDisplay:10.37,2013-03-15 20:04:00,
2013-03-15 15:09:00,33.0,33.0,29.83,ENE,67,2.7,4.6,100,0.01,-RA,,0.17,WeatherDisplay:10.37,2013-03-15 20:09:00,
2013-03-15 15:14:00,33.0,33.0,29.83,ENE,67,1.3,3.5,100,0.01,-RA,,0.17,WeatherDisplay:10.37,2013-03-15 20:14:00,
2013-03-15 15:19:00,32.9,32.9,29.83,ESE,108,3.1,4.6,100,0.02,-RA,,0.18,WeatherDisplay:10.37,2013-03-15 20:19:00,
2013-03-15 15:24:00,33.0,33.0,29.82,ENE,78,3.2,6.9,100,0.02,-RA,,0.18,WeatherDisplay:10.37,2013-03-15 20:24:00,
2013-03-15 15:29:00,33.1,33.1,29.82,ESE,103,4.3,8.1,100,0.01,-RA,,0.18,WeatherDisplay:10.37,2013-03-15 20:29:00,
2013-03-15 15:34:00,32.8,32.8,29.81,East,84,2.8,6.9,100,0.01,-RA,,0.18,WeatherDisplay:10.37,2013-03-15 20:34:00,
2013-03-15 15:39:00,33.0,33.0,29.81,SE,136,3.8,5.8,100,0.01,-RA,,0.18,WeatherDisplay:10.37,2013-03-15 20:39:00,
2013-03-15 15:44:00,32.9,32.9,29.81,ENE,74,3.9,6.7,100,0.01,-RA,,0.18,WeatherDisplay:10.37,2013-03-15 20:44:00,
2013-03-15 15:49:00,33.0,33.0,29.81,East,84,1.9,2.7,100,0.01,-RA,,0.18,WeatherDisplay:10.37,2013-03-15 20:49:00,
2013-03-15 15:54:00,33.0,33.0,29.81,East,93,2.3,3.5,100,0.01,-RA,,0.18,WeatherDisplay:10.37,2013-03-15 20:54:00,
2013-03-15 15:59:00,33.0,33.0,29.80,ESE,108,3.3,6.9,100,0.01,-RA,,0.18,WeatherDisplay:10.37,2013-03-15 20:59:00,
2013-03-15 16:04:00,32.7,32.7,29.80,East,99,5.4,9.2,100,0.01,-RA,,0.18,WeatherDisplay:10.37,2013-03-15 21:04:00,
2013-03-15 16:09:00,32.9,32.9,29.79,ESE,115,4.0,8.1,100,0.01,-RA,,0.18,WeatherDisplay:10.37,2013-03-15 21:09:00,
2013-03-15 16:14:00,32.8,32.8,29.79,East,93,4.5,8.1,100,0.01,-RA,,0.18,WeatherDisplay:10.37,2013-03-15 21:14:00,
2013-03-15 16:19:00,33.2,33.2,29.79,East,95,3.5,8.1,100,0.00,-RA,,0.18,WeatherDisplay:10.37,2013-03-15 21:19:00,
2013-03-15 16:24:00,33.1,33.1,29.78,ESE,112,5.8,9.2,100,0.00,-RA,,0.18,WeatherDisplay:10.37,2013-03-15 21:24:00,
2013-03-15 16:29:00,32.8,32.8,29.78,SSE,157,5.2,8.1,100,0.00,-RA,,0.18,WeatherDisplay:10.37,2013-03-15 21:29:00,
2013-03-15 16:34:00,32.7,32.7,29.78,ESE,106,6.2,9.2,100,0.00,-RA,,0.18,WeatherDisplay:10.37,2013-03-15 21:34:00,
2013-03-15 16:39:00,32.9,32.9,29.78,East,96,3.1,4.6,100,0.00,-RA,,0.18,WeatherDisplay:10.37,2013-03-15 21:39:00,
2013-03-15 16:44:00,32.8,32.8,29.77,ENE,74,4.5,9.2,100,0.00,-RA,,0.18,WeatherDisplay:10.37,2013-03-15 21:44:00,
2013-03-15 16:49:00,32.7,32.7,29.78,East,85,7.0,10.4,100,0.00,-RA,,0.18,WeatherDisplay:10.37,2013-03-15 21:49:00,
2013-03-15 16:54:00,32.6,32.6,29.78,East,84,6.2,11.3,100,0.00,-RA,,0.18,WeatherDisplay:10.37,2013-03-15 21:54:00,
2013-03-15 16:59:00,32.8,32.8,29.78,ESE,123,5.2,8.1,100,0.00,-RA,,0.18,WeatherDisplay:10.37,2013-03-15 21:59:00,
2013-03-15 17:04:00,32.7,32.7,29.79,ENE,74,6.2,9.2,100,0.00,-RA,,0.18,WeatherDisplay:10.37,2013-03-15 22:04:00,
2013-03-15 17:09:00,32.7,32.7,29.79,East,82,4.9,6.9,100,0.00,-RA,,0.18,WeatherDisplay:10.37,2013-03-15 22:09:00,
2013-03-15 17:14:00,32.8,32.8,29.80,NE,47,5.0,6.9,100,0.00,-RA,,0.18,WeatherDisplay:10.37,2013-03-15 22:14:00,
2013-03-15 17:19:00,32.7,32.7,29.81,ENE,64,5.7,8.1,100,0.00,-RA,,0.18,WeatherDisplay:10.37,2013-03-15 22:19:00,
2013-03-15 17:24:00,32.7,32.7,29.81,NE,51,5.6,6.9,100,0.00,-RA,,0.18,WeatherDisplay:10.37,2013-03-15 22:24:00,
2013-03-15 17:29:00,32.7,32.7,29.81,East,85,2.4,8.1,100,0.00,-RA,,0.18,WeatherDisplay:10.37,2013-03-15 22:29:00,
2013-03-15 17:34:00,32.8,32.8,29.81,NNE,26,3.9,4.2,100,0.00,-RA,,0.18,WeatherDisplay:10.37,2013-03-15 22:34:00,
2013-03-15 17:39:00,32.9,32.9,29.81,East,96,1.8,4.6,100,0.00,-RA,,0.18,WeatherDisplay:10.37,2013-03-15 22:39:00,
2013-03-15 17:44:00,32.9,32.9,29.81,ENE,69,0.7,2.3,100,0.00,-RA,,0.18,WeatherDisplay:10.37,2013-03-15 22:44:00,
2013-03-15 17:49:00,32.9,32.9,29.81,East,85,1.4,4.6,100,0.00,-RA,,0.18,WeatherDisplay:10.37,2013-03-15 22:49:00,
2013-03-15 17:54:00,33.1,33.1,29.81,East,91,2.1,2.1,100,0.00,-RA,,0.18,WeatherDisplay:10.37,2013-03-15 22:54:00,
2013-03-15 17:59:00,33.2,33.2,29.81,ESE,117,0.0,0.0,100,0.00,-RA,,0.18,WeatherDisplay:10.37,2013-03-15 22:59:00,
2013-03-15 18:04:00,33.1,33.1,29.81,East,89,0.6,3.5,100,0.00,OVC,,0.18,WeatherDisplay:10.37,2013-03-15 23:04:00,
2013-03-15 18:09:00,33.0,33.0,29.81,East,88,0.0,0.0,100,0.00,OVC,,0.18,WeatherDisplay:10.37,2013-03-15 23:09:00,
2013-03-15 18:14:00,33.0,33.0,29.81,East,88,0.0,0.0,100,0.00,OVC,,0.18,WeatherDisplay:10.37,2013-03-15 23:14:00,
2013-03-15 18:19:00,33.2,33.2,29.81,East,88,0.0,0.0,100,0.00,OVC,,0.18,WeatherDisplay:10.37,2013-03-15 23:19:00,
2013-03-15 18:24:00,33.2,33.2,29.81,East,88,0.0,0.0,100,0.00,OVC,,0.18,WeatherDisplay:10.37,2013-03-15 23:24:00,
2013-03-15 18:29:00,33.1,33.1,29.81,ENE,60,0.4,1.7,100,0.00,OVC,,0.18,WeatherDisplay:10.37,2013-03-15 23:29:00,
2013-03-15 18:34:00,33.2,33.2,29.81,East,92,1.3,2.3,100,0.00,OVC,,0.18,WeatherDisplay:10.37,2013-03-15 23:34:00,
2013-03-15 18:39:00,33.1,33.1,29.82,East,92,2.9,3.5,100,0.00,OVC,,0.18,WeatherDisplay:10.37,2013-03-15 23:39:00,
2013-03-15 18:44:00,33.2,33.2,29.82,NE,34,0.1,3.5,100,0.00,OVC,,0.18,WeatherDisplay:10.37,2013-03-15 23:44:00,
2013-03-15 18:49:00,33.2,33.2,29.82,NE,34,0.0,0.0,100,0.00,OVC,,0.18,WeatherDisplay:10.37,2013-03-15 23:49:00,
2013-03-15 18:54:00,33.1,33.1,29.81,NE,34,0.0,0.0,100,0.00,OVC,,0.18,WeatherDisplay:10.37,2013-03-15 23:54:00,
2013-03-15 18:59:00,33.1,33.1,29.81,NE,34,0.0,0.0,100,0.00,OVC,,0.18,WeatherDisplay:10.37,2013-03-15 23:59:00,
2013-03-15 19:04:00,33.1,33.1,29.81,ESE,109,1.5,4.2,100,0.00,OVC,,0.18,WeatherDisplay:10.37,2013-03-16 00:04:00,
2013-03-15 19:10:00,33.0,33.0,29.82,East,92,2.3,6.9,100,0.00,OVC,,0.18,WeatherDisplay:10.37,2013-03-16 00:10:00,
2013-03-15 19:15:00,32.9,32.9,29.82,ENE,68,3.8,5.8,100,0.00,OVC,,0.18,WeatherDisplay:10.37,2013-03-16 00:15:00,
2013-03-15 19:20:00,32.9,32.9,29.81,ENE,78,5.2,8.1,100,0.00,OVC,,0.18,WeatherDisplay:10.37,2013-03-16 00:20:00,
2013-03-15 19:25:00,32.9,32.9,29.81,SE,132,3.9,5.8,100,0.00,OVC,,0.18,WeatherDisplay:10.37,2013-03-16 00:25:00,
2013-03-15 19:30:00,32.9,32.9,29.81,SE,134,7.1,9.4,100,0.00,OVC,,0.18,WeatherDisplay:10.37,2013-03-16 00:30:00,
2013-03-15 19:35:00,32.8,32.8,29.82,East,91,4.2,8.1,100,0.00,OVC,,0.18,WeatherDisplay:10.37,2013-03-16 00:35:00,
2013-03-15 19:40:00,32.6,32.6,29.82,ESE,103,5.0,9.2,100,0.00,OVC,,0.18,WeatherDisplay:10.37,2013-03-16 00:40:00,
2013-03-15 19:45:00,32.8,32.8,29.82,NNE,20,3.3,4.8,100,0.00,OVC,,0.18,WeatherDisplay:10.37,2013-03-16 00:45:00,
2013-03-15 19:50:00,32.6,32.6,29.82,SE,130,4.3,6.9,100,0.00,OVC,,0.18,WeatherDisplay:10.37,2013-03-16 00:50:00,
2013-03-15 19:55:00,32.8,32.8,29.82,ESE,115,2.3,4.6,100,0.00,OVC,,0.18,WeatherDisplay:10.37,2013-03-16 00:55:00,
2013-03-15 20:00:00,32.7,32.7,29.82,ESE,110,5.0,9.0,100,0.00,OVC,OVC,0.18,WeatherDisplay:10.37,2013-03-16 01:00:00,
2013-03-15 20:05:00,32.7,32.7,29.82,ESE,122,5.8,8.1,100,0.00,OVC,,0.18,WeatherDisplay:10.37,2013-03-16 01:05:00,
2013-03-15 20:10:00,32.7,32.7,29.81,ESE,115,4.5,9.2,100,0.00,OVC,,0.18,WeatherDisplay:10.37,2013-03-16 01:10:00,
2013-03-15 20:15:00,32.8,32.8,29.81,ENE,76,3.7,5.8,100,0.00,OVC,,0.18,WeatherDisplay:10.37,2013-03-16 01:15:00,
2013-03-15 20:20:00,32.7,32.7,29.81,ESE,112,3.0,8.1,100,0.00,OVC,,0.18,WeatherDisplay:10.37,2013-03-16 01:20:00,
2013-03-15 20:25:00,32.7,32.7,29.81,ESE,118,3.0,9.0,100,0.00,OVC,OVC,0.18,WeatherDisplay:10.37,2013-03-16 01:25:00,
2013-03-15 20:30:00,32.7,32.7,29.81,SE,134,4.8,6.9,100,0.00,OVC,,0.18,WeatherDisplay:10.37,2013-03-16 01:30:00,
2013-03-15 20:35:00,32.6,32.6,29.81,ESE,117,5.0,8.0,100,0.00,OVC,OVC,0.18,WeatherDisplay:10.37,2013-03-16 01:35:00,
2013-03-15 20:40:00,32.4,32.4,29.81,ENE,68,4.3,9.2,100,0.00,OVC,,0.18,WeatherDisplay:10.37,2013-03-16 01:40:00,
2013-03-15 20:45:00,32.2,32.2,29.81,ENE,64,3.7,10.4,100,0.00,OVC,,0.18,WeatherDisplay:10.37,2013-03-16 01:45:00,
2013-03-15 20:50:00,32.0,32.0,29.80,East,82,5.5,9.2,100,0.00,OVC,,0.18,WeatherDisplay:10.37,2013-03-16 01:50:00,
2013-03-15 20:55:00,31.8,31.8,29.79,SE,134,7.6,9.2,100,0.00,OVC,,0.18,WeatherDisplay:10.37,2013-03-16 01:55:00,
2013-03-15 21:00:00,31.7,31.7,29.79,SE,130,4.7,9.2,100,0.00,OVC,,0.18,WeatherDisplay:10.37,2013-03-16 02:00:00,
2013-03-15 21:05:00,31.4,31.4,29.79,SE,130,6.6,15.0,100,0.00,OVC,,0.18,WeatherDisplay:10.37,2013-03-16 02:05:00,
2013-03-15 21:10:00,31.6,31.6,29.79,ESE,112,6.0,12.0,100,0.00,OVC,OVC,0.18,WeatherDisplay:10.37,2013-03-16 02:10:00,
2013-03-15 21:15:00,31.4,31.4,29.79,ESE,120,7.0,12.0,100,0.00,OVC,OVC,0.18,WeatherDisplay:10.37,2013-03-16 02:15:00,
2013-03-15 21:20:00,31.5,31.5,29.79,East,84,4.2,9.2,100,0.00,OVC,,0.18,WeatherDisplay:10.37,2013-03-16 02:20:00,
2013-03-15 21:25:00,31.3,31.3,29.79,East,96,5.0,10.0,100,0.00,OVC,OVC,0.18,WeatherDisplay:10.37,2013-03-16 02:25:00,
2013-03-15 21:30:00,31.0,31.0,29.79,East,100,6.8,11.5,100,0.00,OVC,,0.18,WeatherDisplay:10.37,2013-03-16 02:30:00,
2013-03-15 21:35:00,31.1,31.1,29.78,East,88,5.5,6.9,100,0.00,OVC,,0.18,WeatherDisplay:10.37,2013-03-16 02:35:00,
2013-03-15 22:41:00,30.0,30.0,29.78,ESE,109,10.4,10.4,100,0.00,OVC,,0.18,WeatherDisplay:10.37,2013-03-16 03:41:00,
2013-03-15 22:46:00,29.9,29.9,29.78,ENE,62,9.7,14.4,100,0.00,RA,,0.18,WeatherDisplay:10.37,2013-03-16 03:46:00,
2013-03-15 22:52:00,29.9,29.9,29.77,East,100,7.3,13.8,100,0.00,RA,,0.18,WeatherDisplay:10.37,2013-03-16 03:52:00,
2013-03-15 22:57:00,29.9,29.9,29.77,SE,127,8.0,10.4,100,0.00,OVC,,0.18,WeatherDisplay:10.37,2013-03-16 03:57:00,
2013-03-15 23:00:00,29.9,29.9,29.77,SE,129,4.9,9.2,100,0.00,OVC,,0.18,WeatherDisplay:10.37,2013-03-16 04:00:00,
2013-03-15 23:05:00,29.9,29.9,29.77,East,86,3.8,6.9,100,0.00,OVC,,0.18,WeatherDisplay:10.37,2013-03-16 04:05:00,
2013-03-15 23:10:00,29.8,29.8,29.77,ESE,103,4.7,9.2,100,0.00,OVC,,0.18,WeatherDisplay:10.37,2013-03-16 04:10:00,
2013-03-15 23:15:00,29.5,29.5,29.77,ENE,67,7.1,14.4,100,0.00,OVC,,0.18,WeatherDisplay:10.37,2013-03-16 04:15:00,
2013-03-15 23:20:00,29.2,29.2,29.77,ENE,75,7.4,11.5,100,0.00,OVC,,0.18,WeatherDisplay:10.37,2013-03-16 04:20:00,
2013-03-15 23:25:00,29.2,29.2,29.77,ENE,78,6.5,15.0,100,0.00,OVC,,0.18,WeatherDisplay:10.37,2013-03-16 04:25:00,
2013-03-15 23:30:00,29.3,29.3,29.77,ENE,64,4.4,11.5,100,0.00,OVC,,0.18,WeatherDisplay:10.37,2013-03-16 04:30:00,
2013-03-15 23:35:00,29.2,29.2,29.77,ESE,113,5.2,11.5,100,0.00,OVC,,0.18,WeatherDisplay:10.37,2013-03-16 04:35:00,
2013-03-15 23:40:00,29.2,29.2,29.76,East,88,7.5,12.7,100,0.00,OVC,,0.18,WeatherDisplay:10.37,2013-03-16 04:40:00,
2013-03-15 23:45:00,29.2,29.2,29.77,East,84,7.4,10.4,100,0.00,OVC,,0.18,WeatherDisplay:10.37,2013-03-16 04:45:00,
2013-03-15 23:50:00,29.3,29.3,29.77,ENE,57,7.0,10.4,100,0.00,OVC,,0.18,WeatherDisplay:10.37,2013-03-16 04:50:00,
2013-03-15 23:55:00,29.1,29.1,29.77,East,89,8.8,11.5,100,0.00,OVC,,0.18,WeatherDisplay:10.37,2013-03-16 04:55:00,